createdAt,value
2023-12-27T00:01:02.857Z,9.30
2023-12-27T00:03:32.710Z,9.10
2023-12-27T00:06:02.749Z,9.10
2023-12-27T00:08:32.666Z,9.20
2023-12-27T00:11:02.461Z,9.20
2023-12-27T00:13:32.276Z,9.20
2023-12-27T00:16:04.744Z,9.10
2023-12-27T00:18:34.660Z,9.10
2023-12-27T00:21:04.586Z,9.10
2023-12-27T00:23:34.386Z,9.10
2023-12-27T00:26:04.210Z,9.00
2023-12-27T00:28:34.017Z,9.00
2023-12-27T00:31:06.740Z,8.90
2023-12-27T00:33:36.932Z,8.90
2023-12-27T00:36:08.032Z,8.90
2023-12-27T00:38:39.056Z,8.90
2023-12-27T00:41:10.593Z,8.90
2023-12-27T00:43:40.387Z,8.90
2023-12-27T00:46:12.879Z,9.00
2023-12-27T00:48:42.733Z,9.00
2023-12-27T00:51:22.300Z,9.00
2023-12-27T00:53:52.752Z,8.90
2023-12-27T00:56:22.641Z,8.90
2023-12-27T00:58:52.460Z,8.90
2023-12-27T01:01:24.969Z,8.80
2023-12-27T01:03:55.467Z,8.70
2023-12-27T01:06:25.452Z,8.70
2023-12-27T01:08:55.344Z,8.70
2023-12-27T01:11:25.185Z,8.80
2023-12-27T01:13:54.974Z,8.70
2023-12-27T01:16:27.800Z,8.60
2023-12-27T01:18:57.695Z,8.60
2023-12-27T01:21:27.594Z,8.60
2023-12-27T01:23:57.452Z,8.50
2023-12-27T01:26:27.246Z,8.50
2023-12-27T01:28:57.049Z,8.50
2023-12-27T01:31:29.522Z,8.40
2023-12-27T01:34:08.207Z,8.30
2023-12-27T01:36:42.227Z,8.30
2023-12-27T01:39:12.266Z,8.20
2023-12-27T01:41:42.274Z,8.20
2023-12-27T01:44:12.289Z,8.20
2023-12-27T01:46:44.876Z,8.20
2023-12-27T01:49:14.822Z,8.10
2023-12-27T01:51:44.911Z,8.10
2023-12-27T01:54:15.959Z,7.90
2023-12-27T01:56:47.580Z,7.90
2023-12-27T01:59:17.656Z,7.90
2023-12-27T02:01:50.663Z,7.90
2023-12-27T02:04:20.544Z,7.80
2023-12-27T02:06:51.174Z,7.80
2023-12-27T02:09:21.850Z,7.70
2023-12-27T02:11:51.731Z,7.70
2023-12-27T02:14:21.603Z,7.60
2023-12-27T02:16:54.969Z,7.50
2023-12-27T02:19:27.582Z,7.50
2023-12-27T02:21:58.052Z,7.50
2023-12-27T02:24:38.321Z,7.40
2023-12-27T02:27:08.358Z,7.40
2023-12-27T02:29:39.174Z,7.40
2023-12-27T02:32:09.816Z,7.30
2023-12-27T02:34:39.984Z,7.40
2023-12-27T02:37:09.863Z,7.40
2023-12-27T02:39:42.288Z,7.30
2023-12-27T02:42:12.150Z,7.40
2023-12-27T02:44:42.664Z,7.40
2023-12-27T02:47:12.478Z,7.50
2023-12-27T02:49:42.564Z,7.60
2023-12-27T02:52:12.410Z,7.70
2023-12-27T02:54:44.915Z,7.80
2023-12-27T02:57:14.756Z,7.80
2023-12-27T02:59:44.634Z,7.80
2023-12-27T03:02:14.461Z,7.80
2023-12-27T03:04:44.291Z,7.90
2023-12-27T03:07:15.173Z,7.90
2023-12-27T03:09:47.576Z,7.90
2023-12-27T03:12:17.432Z,7.90
2023-12-27T03:14:47.213Z,7.90
2023-12-27T03:17:17.445Z,7.90
2023-12-27T03:19:47.302Z,7.90
2023-12-27T03:22:17.131Z,7.80
2023-12-27T03:24:49.627Z,7.80
2023-12-27T03:27:19.551Z,7.80
2023-12-27T03:29:49.374Z,7.80
2023-12-27T03:32:19.192Z,7.80
2023-12-27T03:34:49.022Z,7.70
2023-12-27T03:37:18.889Z,7.70
2023-12-27T03:39:52.664Z,7.70
2023-12-27T03:42:23.231Z,7.50
2023-12-27T03:44:54.522Z,7.40
2023-12-27T03:47:24.488Z,7.50
2023-12-27T03:49:54.420Z,7.50
2023-12-27T03:52:24.905Z,7.60
2023-12-27T03:54:57.336Z,7.60
2023-12-27T03:57:27.311Z,7.50
2023-12-27T03:59:57.158Z,7.60
2023-12-27T04:02:27.226Z,7.60
2023-12-27T04:04:57.026Z,7.50
2023-12-27T04:07:26.880Z,7.60
2023-12-27T04:09:59.336Z,7.60
2023-12-27T04:12:29.213Z,7.70
2023-12-27T04:14:59.102Z,7.70
2023-12-27T04:17:29.408Z,7.70
2023-12-27T04:19:59.301Z,7.70
2023-12-27T04:22:29.212Z,7.70
2023-12-27T04:25:04.434Z,7.70
2023-12-27T04:27:34.195Z,7.60
2023-12-27T04:30:04.489Z,7.60
2023-12-27T04:32:34.486Z,7.70
2023-12-27T04:35:04.455Z,7.70
2023-12-27T04:37:34.435Z,7.70
2023-12-27T04:40:07.850Z,7.70
2023-12-27T04:42:37.840Z,7.70
2023-12-27T04:45:09.204Z,7.70
2023-12-27T04:47:39.117Z,7.70
2023-12-27T04:50:10.662Z,7.70
2023-12-27T04:52:40.612Z,7.70
2023-12-27T04:55:13.511Z,7.70
2023-12-27T04:57:43.363Z,7.70
2023-12-27T05:00:13.917Z,7.60
2023-12-27T05:02:43.789Z,7.50
2023-12-27T05:05:13.585Z,7.50
2023-12-27T05:07:43.449Z,7.60
2023-12-27T05:10:15.901Z,7.60
2023-12-27T05:12:45.768Z,7.60
2023-12-27T05:15:15.590Z,7.70
2023-12-27T05:17:45.514Z,7.80
2023-12-27T05:20:15.532Z,7.60
2023-12-27T05:22:45.967Z,7.60
2023-12-27T05:25:18.497Z,7.60
2023-12-27T05:27:48.312Z,7.60
2023-12-27T05:30:18.360Z,7.70
2023-12-27T05:32:48.309Z,7.80
2023-12-27T05:35:18.250Z,7.90
2023-12-27T05:37:48.096Z,7.80
2023-12-27T05:40:20.604Z,7.70
2023-12-27T05:42:50.385Z,7.90
2023-12-27T05:45:20.311Z,7.80
2023-12-27T05:47:50.225Z,7.90
2023-12-27T05:50:21.012Z,8.00
2023-12-27T05:52:51.438Z,8.00
2023-12-27T05:55:24.444Z,8.00
2023-12-27T05:57:54.312Z,8.00
2023-12-27T06:00:24.438Z,7.90
2023-12-27T06:02:54.303Z,7.80
2023-12-27T06:05:24.798Z,7.90
2023-12-27T06:07:54.871Z,7.90
2023-12-27T06:10:27.766Z,8.00
2023-12-27T06:12:58.082Z,8.00
2023-12-27T06:15:27.902Z,7.90
2023-12-27T06:17:58.084Z,8.10
2023-12-27T06:20:28.058Z,8.20
2023-12-27T06:22:57.877Z,8.10
2023-12-27T06:25:30.284Z,8.20
2023-12-27T06:28:00.450Z,8.10
2023-12-27T06:30:30.904Z,8.10
2023-12-27T06:33:00.857Z,8.10
2023-12-27T06:35:30.715Z,8.00
2023-12-27T06:38:00.870Z,8.10
2023-12-27T06:40:33.520Z,8.10
2023-12-27T06:43:03.964Z,8.10
2023-12-27T06:45:33.887Z,8.20
2023-12-27T06:48:04.044Z,8.20
2023-12-27T06:50:33.972Z,8.20
2023-12-27T06:53:03.833Z,8.30
2023-12-27T06:55:36.247Z,8.20
2023-12-27T06:58:06.287Z,8.30
2023-12-27T07:00:36.864Z,8.30
2023-12-27T07:03:07.329Z,8.30
2023-12-27T07:05:38.110Z,8.30
2023-12-27T07:08:08.377Z,8.40
2023-12-27T07:10:40.769Z,8.40
2023-12-27T07:13:10.683Z,8.50
2023-12-27T07:15:40.621Z,8.40
2023-12-27T07:18:10.749Z,8.50
2023-12-27T07:20:40.962Z,8.40
2023-12-27T07:23:11.783Z,8.50
2023-12-27T07:25:44.206Z,8.70
2023-12-27T07:28:14.089Z,8.70
2023-12-27T07:30:43.971Z,8.80
2023-12-27T07:33:17.254Z,8.80
2023-12-27T07:35:47.438Z,8.80
2023-12-27T07:38:17.415Z,8.90
2023-12-27T07:40:49.801Z,8.90
2023-12-27T07:43:23.474Z,8.80
2023-12-27T07:45:53.389Z,8.90
2023-12-27T07:48:24.291Z,9.00
2023-12-27T07:50:54.270Z,9.00
2023-12-27T07:53:24.118Z,8.90
2023-12-27T07:55:56.515Z,9.10
2023-12-27T07:58:26.343Z,9.20
2023-12-27T08:00:57.093Z,9.10
2023-12-27T08:03:26.973Z,9.20
2023-12-27T08:05:56.911Z,9.20
2023-12-27T08:08:26.725Z,9.20
2023-12-27T08:10:59.162Z,9.20
2023-12-27T08:13:28.973Z,9.30
2023-12-27T08:15:59.237Z,9.40
2023-12-27T08:18:29.175Z,9.40
2023-12-27T08:20:59.828Z,9.40
2023-12-27T08:23:29.667Z,9.30
2023-12-27T08:26:02.127Z,9.50
2023-12-27T08:28:32.017Z,9.40
2023-12-27T08:31:01.945Z,9.40
2023-12-27T08:33:32.172Z,9.60
2023-12-27T08:36:02.416Z,9.60
2023-12-27T08:38:32.833Z,9.50
2023-12-27T08:41:06.422Z,9.30
2023-12-27T08:43:38.468Z,9.20
2023-12-27T08:46:12.267Z,9.20
2023-12-27T08:48:42.189Z,9.20
2023-12-27T08:51:13.258Z,9.20
2023-12-27T08:53:43.099Z,9.20
2023-12-27T08:56:16.182Z,9.30
2023-12-27T08:58:46.040Z,9.40
2023-12-27T09:01:17.587Z,9.40
2023-12-27T09:03:50.097Z,9.50
2023-12-27T09:06:20.152Z,9.50
2023-12-27T09:08:50.594Z,9.50
2023-12-27T09:11:40.255Z,9.50
2023-12-27T09:14:12.520Z,9.40
2023-12-27T09:16:42.298Z,9.30
2023-12-27T09:19:12.355Z,9.30
2023-12-27T09:21:47.381Z,9.30
2023-12-27T09:24:17.825Z,9.30
2023-12-27T09:26:51.136Z,9.20
2023-12-27T09:29:20.954Z,9.20
2023-12-27T09:31:50.859Z,9.30
2023-12-27T09:34:20.867Z,9.40
2023-12-27T09:36:50.763Z,9.30
2023-12-27T09:39:20.640Z,9.30
2023-12-27T09:41:53.219Z,9.30
2023-12-27T09:44:24.007Z,9.30
2023-12-27T09:46:54.453Z,9.50
2023-12-27T09:49:25.727Z,9.40
2023-12-27T09:51:57.022Z,9.60
2023-12-27T09:54:27.237Z,9.60
2023-12-27T09:57:00.523Z,9.70
2023-12-27T09:59:32.461Z,9.80
2023-12-27T10:02:03.706Z,9.80
2023-12-27T10:04:51.705Z,9.90
2023-12-27T10:07:22.925Z,9.90
2023-12-27T10:09:53.465Z,9.90
2023-12-27T10:12:25.970Z,10.00
2023-12-27T10:14:57.221Z,9.90
2023-12-27T10:17:27.187Z,10.00
2023-12-27T10:19:57.339Z,9.90
2023-12-27T10:22:28.220Z,9.90
2023-12-27T10:24:58.790Z,9.90
2023-12-27T10:27:34.185Z,9.90
2023-12-27T10:30:06.097Z,9.90
2023-12-27T10:32:36.208Z,9.90
2023-12-27T10:35:06.340Z,10.00
2023-12-27T10:37:36.216Z,10.00
2023-12-27T10:40:07.185Z,10.00
2023-12-27T10:42:39.633Z,10.00
2023-12-27T10:45:09.812Z,10.00
2023-12-27T10:47:40.202Z,10.10
2023-12-27T10:50:13.566Z,10.20
2023-12-27T10:52:48.520Z,10.20
2023-12-27T10:55:23.793Z,10.30
2023-12-27T10:57:59.518Z,10.30
2023-12-27T11:00:30.157Z,10.30
2023-12-27T11:03:01.844Z,10.30
2023-12-27T11:05:34.097Z,10.30
2023-12-27T11:08:05.151Z,10.40
2023-12-27T11:10:37.985Z,10.30
2023-12-27T11:13:13.161Z,10.40
2023-12-27T11:15:46.498Z,10.40
2023-12-27T11:18:17.044Z,10.40
2023-12-27T11:20:49.078Z,10.40
2023-12-27T11:23:19.002Z,10.40
2023-12-27T11:25:50.082Z,10.40
2023-12-27T11:28:24.505Z,10.40
2023-12-27T11:30:54.413Z,10.50
2023-12-27T11:33:29.147Z,10.40
2023-12-27T11:36:01.371Z,10.50
2023-12-27T11:38:32.645Z,10.50
2023-12-27T11:41:04.950Z,10.60
2023-12-27T11:43:58.397Z,10.60
2023-12-27T11:46:29.432Z,10.70
2023-12-27T11:49:00.908Z,10.70
2023-12-27T11:51:33.834Z,10.70
2023-12-27T11:54:04.518Z,10.70
2023-12-27T11:56:38.468Z,10.80
2023-12-27T11:59:13.395Z,10.90
2023-12-27T12:01:44.911Z,10.80
2023-12-27T12:04:26.265Z,10.90
2023-12-27T12:07:31.583Z,10.80
2023-12-27T12:10:01.410Z,11.00
2023-12-27T12:12:32.417Z,11.00
2023-12-27T12:15:05.357Z,11.10
2023-12-27T12:17:35.336Z,11.00
2023-12-27T12:20:06.848Z,11.10
2023-12-27T12:22:38.141Z,11.00
2023-12-27T12:25:11.724Z,11.00
2023-12-27T12:27:45.645Z,11.00
2023-12-27T12:30:19.672Z,11.00
2023-12-27T12:32:49.746Z,11.00
2023-12-27T12:35:20.179Z,11.00
2023-12-27T12:37:50.148Z,11.10
2023-12-27T12:40:20.359Z,11.20
2023-12-27T12:42:50.305Z,11.30
2023-12-27T12:45:23.013Z,11.20
2023-12-27T12:47:54.347Z,11.20
2023-12-27T12:50:24.494Z,11.20
2023-12-27T12:52:54.370Z,11.20
2023-12-27T12:55:30.059Z,11.20
2023-12-27T12:58:00.445Z,11.10
2023-12-27T13:00:33.817Z,11.10
2023-12-27T13:03:03.789Z,11.20
2023-12-27T13:05:34.041Z,11.20
2023-12-27T13:08:08.732Z,11.10
2023-12-27T13:10:40.576Z,11.10
2023-12-27T13:13:10.576Z,11.10
2023-12-27T13:15:43.075Z,11.10
2023-12-27T13:18:13.056Z,11.10
2023-12-27T13:20:43.016Z,11.10
2023-12-27T13:23:12.836Z,11.10
2023-12-27T13:25:43.533Z,11.10
2023-12-27T13:28:14.492Z,11.10
2023-12-27T13:30:47.272Z,11.00
2023-12-27T13:33:17.410Z,11.00
2023-12-27T13:35:47.401Z,11.10
2023-12-27T13:38:17.219Z,11.00
2023-12-27T13:40:47.074Z,11.00
2023-12-27T13:43:18.143Z,11.10
2023-12-27T13:45:50.733Z,11.10
2023-12-27T13:48:22.442Z,11.10
2023-12-27T13:50:54.282Z,11.20
2023-12-27T13:53:24.120Z,11.10
2023-12-27T13:55:53.953Z,11.10
2023-12-27T13:58:23.799Z,11.10
2023-12-27T14:00:56.622Z,11.20
2023-12-27T14:03:30.961Z,11.20
2023-12-27T14:06:01.145Z,11.20
2023-12-27T14:08:31.083Z,11.10
2023-12-27T14:11:01.127Z,11.10
2023-12-27T14:13:30.946Z,11.20
2023-12-27T14:16:04.942Z,11.20
2023-12-27T14:18:34.894Z,11.20
2023-12-27T14:21:05.026Z,11.20
2023-12-27T14:23:34.837Z,11.20
2023-12-27T14:26:06.325Z,11.10
2023-12-27T14:28:37.364Z,11.00
2023-12-27T14:31:09.910Z,11.10
2023-12-27T14:33:40.231Z,11.10
2023-12-27T14:36:11.355Z,11.20
2023-12-27T14:38:42.815Z,11.10
2023-12-27T14:41:12.949Z,11.10
2023-12-27T14:43:43.649Z,11.00
2023-12-27T14:46:16.140Z,11.00
2023-12-27T14:48:47.395Z,10.90
2023-12-27T14:51:17.372Z,11.00
2023-12-27T14:53:44.925Z,11.00
2023-12-27T14:56:15.669Z,11.00
2023-12-27T14:58:45.648Z,11.00
2023-12-27T15:01:18.089Z,10.90
2023-12-27T15:03:48.023Z,10.90
2023-12-27T15:06:18.002Z,10.90
2023-12-27T15:08:48.789Z,10.90
2023-12-27T15:11:18.803Z,10.80
2023-12-27T15:13:48.601Z,10.80
2023-12-27T15:16:21.440Z,10.80
2023-12-27T15:18:51.421Z,10.80
2023-12-27T15:21:22.388Z,10.70
2023-12-27T15:23:53.245Z,10.80
2023-12-27T15:26:24.191Z,10.60
2023-12-27T15:28:54.496Z,10.60
2023-12-27T15:31:29.740Z,10.70
2023-12-27T15:34:00.810Z,10.60
2023-12-27T15:36:31.163Z,10.60
2023-12-27T15:39:01.730Z,10.60
2023-12-27T15:41:32.098Z,10.60
2023-12-27T15:44:04.210Z,10.60
2023-12-27T15:46:36.878Z,10.60
2023-12-27T15:49:06.965Z,10.60
2023-12-27T15:51:36.751Z,10.50
2023-12-27T15:54:08.488Z,10.60
2023-12-27T15:56:43.210Z,10.50
2023-12-27T15:59:14.384Z,10.50
2023-12-27T16:01:46.778Z,10.50
2023-12-27T16:04:19.006Z,10.50
2023-12-27T16:06:50.213Z,10.50
2023-12-27T16:09:20.469Z,10.50
2023-12-27T16:11:52.417Z,10.50
2023-12-27T16:14:22.257Z,10.40
2023-12-27T16:16:54.725Z,10.40
2023-12-27T16:19:24.920Z,10.40
2023-12-27T16:21:55.105Z,10.40
2023-12-27T16:24:25.225Z,10.40
2023-12-27T16:26:55.062Z,10.30
2023-12-27T16:29:24.839Z,10.40
2023-12-27T16:31:57.245Z,10.30
2023-12-27T16:34:27.245Z,10.20
2023-12-27T16:36:57.926Z,10.30
2023-12-27T16:39:27.781Z,10.30
2023-12-27T16:41:57.577Z,10.20
2023-12-27T16:44:28.144Z,10.20
2023-12-27T16:47:00.688Z,10.30
2023-12-27T16:49:30.783Z,10.30
2023-12-27T16:52:00.662Z,10.20
2023-12-27T16:54:30.660Z,10.20
2023-12-27T16:57:00.496Z,10.20
2023-12-27T16:59:30.269Z,10.20
2023-12-27T17:02:02.913Z,10.20
2023-12-27T17:04:32.967Z,10.20
2023-12-27T17:07:03.196Z,10.20
2023-12-27T17:09:34.556Z,10.20
2023-12-27T17:12:05.018Z,10.20
2023-12-27T17:14:32.304Z,10.10
2023-12-27T17:17:04.706Z,10.20
2023-12-27T17:19:34.617Z,10.10
2023-12-27T17:22:04.445Z,10.10
2023-12-27T17:24:34.519Z,10.20
2023-12-27T17:27:04.483Z,10.10
2023-12-27T17:29:34.619Z,10.20
2023-12-27T17:32:07.677Z,10.20
2023-12-27T17:34:37.646Z,10.20
2023-12-27T17:37:07.828Z,10.20
2023-12-27T17:39:37.835Z,10.10
2023-12-27T17:42:08.503Z,10.10
2023-12-27T17:44:38.478Z,10.20
2023-12-27T17:47:10.935Z,10.20
2023-12-27T17:49:40.912Z,10.20
2023-12-27T17:52:10.879Z,10.20
2023-12-27T17:54:40.811Z,10.30
2023-12-27T17:57:11.206Z,10.30
2023-12-27T17:59:42.124Z,10.20
2023-12-27T18:02:14.620Z,10.20
2023-12-27T18:04:44.706Z,10.30
2023-12-27T18:07:14.692Z,10.20
2023-12-27T18:09:44.970Z,10.30
2023-12-27T18:12:15.796Z,10.30
2023-12-27T18:14:47.496Z,10.30
2023-12-27T18:17:20.106Z,10.30
2023-12-27T18:19:50.193Z,10.30
2023-12-27T18:22:20.161Z,10.30
2023-12-27T18:24:50.021Z,10.30
2023-12-27T18:27:19.870Z,10.30
2023-12-27T18:29:49.669Z,10.20
2023-12-27T18:32:22.268Z,10.30
2023-12-27T18:34:52.160Z,10.30
2023-12-27T18:37:22.047Z,10.30
2023-12-27T18:39:51.893Z,10.30
2023-12-27T18:42:21.792Z,10.30
2023-12-27T18:44:51.671Z,10.30
2023-12-27T18:47:24.152Z,10.30
2023-12-27T18:49:54.098Z,10.30
2023-12-27T18:52:24.075Z,10.30
2023-12-27T18:54:54.671Z,10.30
2023-12-27T18:57:25.959Z,10.30
2023-12-27T18:59:56.035Z,10.30
2023-12-27T19:02:28.446Z,10.30
2023-12-27T19:04:58.275Z,10.30
2023-12-27T19:07:28.162Z,10.30
2023-12-27T19:09:58.171Z,10.30
2023-12-27T19:12:29.483Z,10.30
2023-12-27T19:15:01.128Z,10.40
2023-12-27T19:17:34.954Z,10.40
2023-12-27T19:20:05.182Z,10.40
2023-12-27T19:22:35.129Z,10.50
2023-12-27T19:25:04.974Z,10.40
2023-12-27T19:27:34.832Z,10.50
2023-12-27T19:30:06.448Z,10.50
2023-12-27T19:32:39.203Z,10.40
2023-12-27T19:35:09.961Z,10.50
2023-12-27T19:37:42.396Z,10.50
2023-12-27T19:40:14.464Z,10.50
2023-12-27T19:42:44.804Z,10.50
2023-12-27T19:45:14.688Z,10.50
2023-12-27T19:47:47.637Z,10.40
2023-12-27T19:50:17.641Z,10.50
2023-12-27T19:52:47.425Z,10.50
2023-12-27T19:55:17.611Z,10.60
2023-12-27T19:57:47.434Z,10.50
2023-12-27T20:00:17.632Z,10.60
2023-12-27T20:02:50.142Z,10.60
2023-12-27T20:05:20.287Z,10.60
2023-12-27T20:07:50.091Z,10.60
2023-12-27T20:10:19.909Z,10.70
2023-12-27T20:12:49.870Z,10.70
2023-12-27T20:15:20.447Z,10.60
2023-12-27T20:17:52.966Z,10.60
2023-12-27T20:20:22.974Z,10.60
2023-12-27T20:22:52.983Z,10.70
2023-12-27T20:25:22.951Z,10.60
2023-12-27T20:27:52.958Z,10.60
2023-12-27T20:30:25.667Z,10.60
2023-12-27T20:32:58.267Z,10.60
2023-12-27T20:35:28.212Z,10.60
2023-12-27T20:37:58.303Z,10.70
2023-12-27T20:40:28.232Z,10.70
2023-12-27T20:42:58.107Z,10.80
2023-12-27T20:45:28.154Z,10.80
2023-12-27T20:48:00.816Z,10.80
2023-12-27T20:50:30.799Z,10.90
2023-12-27T20:53:00.665Z,10.90
2023-12-27T20:55:30.473Z,10.90
2023-12-27T20:58:00.532Z,10.80
2023-12-27T21:00:30.653Z,10.90
2023-12-27T21:03:03.160Z,10.90
2023-12-27T21:05:33.172Z,10.90
2023-12-27T21:08:03.654Z,10.90
2023-12-27T21:10:33.560Z,10.90
2023-12-27T21:13:03.567Z,11.00
2023-12-27T21:15:34.781Z,11.00
2023-12-27T21:18:08.250Z,10.90
2023-12-27T21:20:38.229Z,10.90
2023-12-27T21:23:08.074Z,10.90
2023-12-27T21:25:37.871Z,10.90
2023-12-27T21:28:09.139Z,10.90
2023-12-27T21:30:40.749Z,10.80
2023-12-27T21:33:13.457Z,10.90
2023-12-27T21:35:43.619Z,10.90
2023-12-27T21:38:13.458Z,10.90
2023-12-27T21:40:43.263Z,10.90
2023-12-27T21:43:14.514Z,10.90
2023-12-27T21:45:44.342Z,10.80
2023-12-27T21:48:16.863Z,10.90
2023-12-27T21:50:46.697Z,10.90
2023-12-27T21:53:16.579Z,11.00
2023-12-27T21:55:46.373Z,10.90
2023-12-27T21:58:16.191Z,10.90
2023-12-27T22:00:46.066Z,10.90
2023-12-27T22:03:19.802Z,10.90
2023-12-27T22:05:49.638Z,10.90
2023-12-27T22:08:19.963Z,10.90
2023-12-27T22:10:49.754Z,11.00
2023-12-27T22:13:19.573Z,11.00
2023-12-27T22:15:55.751Z,11.00
2023-12-27T22:18:33.443Z,11.00
2023-12-27T22:21:05.530Z,11.00
2023-12-27T22:23:35.463Z,10.90
2023-12-27T22:26:05.829Z,11.00
2023-12-27T22:28:35.634Z,11.00
2023-12-27T22:31:05.535Z,10.90
2023-12-27T22:33:38.133Z,11.00
2023-12-27T22:36:11.009Z,11.00
2023-12-27T22:38:40.853Z,11.10
2023-12-27T22:41:10.621Z,11.20
2023-12-27T22:43:40.447Z,10.90
2023-12-27T22:46:10.225Z,10.50
2023-12-27T22:48:42.683Z,10.20
2023-12-27T22:51:12.560Z,10.10
2023-12-27T22:53:42.496Z,9.90
2023-12-27T22:56:13.091Z,9.90
2023-12-27T22:58:43.059Z,9.90
2023-12-27T23:01:13.248Z,9.90
2023-12-27T23:03:45.799Z,9.90
2023-12-27T23:06:15.787Z,9.90
2023-12-27T23:08:45.658Z,9.80
2023-12-27T23:11:15.451Z,9.70
2023-12-27T23:13:45.250Z,9.70
2023-12-27T23:16:15.090Z,9.70
2023-12-27T23:18:47.896Z,9.60
2023-12-27T23:21:18.267Z,9.60
2023-12-27T23:23:48.030Z,9.50
2023-12-27T23:26:17.825Z,9.50
2023-12-27T23:28:47.621Z,9.50
2023-12-27T23:31:17.572Z,9.40
2023-12-27T23:33:50.163Z,9.40
2023-12-27T23:36:20.069Z,9.40
2023-12-27T23:38:49.948Z,9.40
2023-12-27T23:41:19.793Z,9.40
2023-12-27T23:43:49.599Z,9.40
2023-12-27T23:46:19.389Z,9.40
2023-12-27T23:48:51.987Z,9.50
2023-12-27T23:51:21.940Z,9.50
2023-12-27T23:53:51.853Z,9.50
2023-12-27T23:56:22.458Z,9.40
2023-12-27T23:58:52.526Z,9.40
